sensor_id;sensor_type;location;lat;lon;timestamp;P1;durP1;ratioP1;P2;durP2;ratioP2
27491;SDS011;14927;51.210;6.838;2023-08-24T00:00:19;8.90;;;4.82;;
27491;SDS011;14927;51.210;6.838;2023-08-24T00:03:04;11.45;;;5.22;;
27491;SDS011;14927;51.210;6.838;2023-08-24T00:05:49;10.80;;;5.35;;
27491;SDS011;14927;51.210;6.838;2023-08-24T00:08:33;7.53;;;4.43;;
27491;SDS011;14927;51.210;6.838;2023-08-24T00:11:18;9.45;;;5.10;;
27491;SDS011;14927;51.210;6.838;2023-08-24T00:14:03;10.90;;;4.90;;
27491;SDS011;14927;51.210;6.838;2023-08-24T00:16:47;6.97;;;4.60;;
27491;SDS011;14927;51.210;6.838;2023-08-24T00:19:33;12.23;;;4.60;;
27491;SDS011;14927;51.210;6.838;2023-08-24T00:22:17;10.70;;;5.55;;
27491;SDS011;14927;51.210;6.838;2023-08-24T00:25:02;8.98;;;4.50;;
27491;SDS011;14927;51.210;6.838;2023-08-24T00:27:47;7.97;;;4.75;;
27491;SDS011;14927;51.210;6.838;2023-08-24T00:30:31;11.73;;;4.95;;
27491;SDS011;14927;51.210;6.838;2023-08-24T00:33:16;9.43;;;4.63;;
27491;SDS011;14927;51.210;6.838;2023-08-24T00:36:01;12.50;;;5.20;;
27491;SDS011;14927;51.210;6.838;2023-08-24T00:38:46;7.70;;;4.68;;
27491;SDS011;14927;51.210;6.838;2023-08-24T00:41:34;9.02;;;4.45;;
27491;SDS011;14927;51.210;6.838;2023-08-24T00:44:18;8.15;;;4.78;;
27491;SDS011;14927;51.210;6.838;2023-08-24T00:47:03;7.70;;;4.45;;
27491;SDS011;14927;51.210;6.838;2023-08-24T00:49:48;11.70;;;4.97;;
27491;SDS011;14927;51.210;6.838;2023-08-24T00:52:36;8.38;;;4.38;;
27491;SDS011;14927;51.210;6.838;2023-08-24T00:55:24;8.48;;;5.00;;
27491;SDS011;14927;51.210;6.838;2023-08-24T00:58:09;12.02;;;4.93;;
27491;SDS011;14927;51.210;6.838;2023-08-24T01:00:53;6.50;;;4.40;;
27491;SDS011;14927;51.210;6.838;2023-08-24T01:03:39;6.95;;;4.47;;
27491;SDS011;14927;51.210;6.838;2023-08-24T01:06:24;9.25;;;4.03;;
27491;SDS011;14927;51.210;6.838;2023-08-24T01:09:09;8.15;;;4.30;;
27491;SDS011;14927;51.210;6.838;2023-08-24T01:18:41;7.85;;;3.47;;
27491;SDS011;14927;51.210;6.838;2023-08-24T01:21:27;8.18;;;3.50;;
27491;SDS011;14927;51.210;6.838;2023-08-24T01:24:24;6.55;;;3.05;;
27491;SDS011;14927;51.210;6.838;2023-08-24T01:27:24;5.45;;;3.25;;
27491;SDS011;14927;51.210;6.838;2023-08-24T01:30:10;5.93;;;3.47;;
27491;SDS011;14927;51.210;6.838;2023-08-24T01:32:55;6.63;;;3.03;;
27491;SDS011;14927;51.210;6.838;2023-08-24T01:35:40;7.40;;;3.45;;
27491;SDS011;14927;51.210;6.838;2023-08-24T01:38:25;5.20;;;3.33;;
27491;SDS011;14927;51.210;6.838;2023-08-24T01:44:07;15.38;;;3.55;;
27491;SDS011;14927;51.210;6.838;2023-08-24T01:46:53;8.30;;;3.40;;
27491;SDS011;14927;51.210;6.838;2023-08-24T01:49:39;7.90;;;3.58;;
27491;SDS011;14927;51.210;6.838;2023-08-24T01:52:25;6.28;;;2.97;;
27491;SDS011;14927;51.210;6.838;2023-08-24T01:55:10;4.55;;;3.13;;
27491;SDS011;14927;51.210;6.838;2023-08-24T01:57:56;6.90;;;3.45;;
27491;SDS011;14927;51.210;6.838;2023-08-24T02:00:41;9.20;;;3.47;;
27491;SDS011;14927;51.210;6.838;2023-08-24T02:03:25;6.57;;;3.47;;
27491;SDS011;14927;51.210;6.838;2023-08-24T02:06:10;6.00;;;3.42;;
27491;SDS011;14927;51.210;6.838;2023-08-24T02:08:55;5.93;;;3.53;;
27491;SDS011;14927;51.210;6.838;2023-08-24T02:11:39;6.72;;;3.15;;
27491;SDS011;14927;51.210;6.838;2023-08-24T02:14:24;6.07;;;3.33;;
27491;SDS011;14927;51.210;6.838;2023-08-24T02:17:08;7.05;;;3.88;;
27491;SDS011;14927;51.210;6.838;2023-08-24T02:19:54;7.38;;;3.58;;
27491;SDS011;14927;51.210;6.838;2023-08-24T02:22:39;6.32;;;3.45;;
27491;SDS011;14927;51.210;6.838;2023-08-24T02:25:24;9.32;;;3.40;;
27491;SDS011;14927;51.210;6.838;2023-08-24T02:28:09;7.72;;;4.13;;
27491;SDS011;14927;51.210;6.838;2023-08-24T02:30:53;6.80;;;3.53;;
27491;SDS011;14927;51.210;6.838;2023-08-24T02:33:38;8.02;;;3.80;;
27491;SDS011;14927;51.210;6.838;2023-08-24T02:36:23;5.57;;;3.03;;
27491;SDS011;14927;51.210;6.838;2023-08-24T02:39:07;5.10;;;2.85;;
27491;SDS011;14927;51.210;6.838;2023-08-24T02:41:52;8.35;;;3.30;;
27491;SDS011;14927;51.210;6.838;2023-08-24T02:44:37;8.63;;;3.75;;
27491;SDS011;14927;51.210;6.838;2023-08-24T02:47:21;5.10;;;2.97;;
27491;SDS011;14927;51.210;6.838;2023-08-24T02:50:06;6.13;;;3.70;;
27491;SDS011;14927;51.210;6.838;2023-08-24T02:52:51;6.95;;;3.92;;
27491;SDS011;14927;51.210;6.838;2023-08-24T02:55:36;8.45;;;3.53;;
27491;SDS011;14927;51.210;6.838;2023-08-24T02:58:20;6.20;;;3.65;;
27491;SDS011;14927;51.210;6.838;2023-08-24T03:01:06;6.72;;;3.63;;
27491;SDS011;14927;51.210;6.838;2023-08-24T03:03:51;5.93;;;3.03;;
27491;SDS011;14927;51.210;6.838;2023-08-24T03:06:36;11.88;;;3.67;;
27491;SDS011;14927;51.210;6.838;2023-08-24T03:09:20;6.68;;;3.67;;
27491;SDS011;14927;51.210;6.838;2023-08-24T03:12:05;5.57;;;3.08;;
27491;SDS011;14927;51.210;6.838;2023-08-24T03:14:53;6.05;;;3.30;;
27491;SDS011;14927;51.210;6.838;2023-08-24T03:17:38;5.38;;;3.63;;
27491;SDS011;14927;51.210;6.838;2023-08-24T03:20:23;6.65;;;3.53;;
27491;SDS011;14927;51.210;6.838;2023-08-24T03:23:07;11.90;;;3.40;;
27491;SDS011;14927;51.210;6.838;2023-08-24T03:25:52;5.13;;;2.90;;
27491;SDS011;14927;51.210;6.838;2023-08-24T03:28:39;6.70;;;3.65;;
27491;SDS011;14927;51.210;6.838;2023-08-24T03:31:23;9.52;;;3.42;;
27491;SDS011;14927;51.210;6.838;2023-08-24T03:34:09;8.35;;;3.22;;
27491;SDS011;14927;51.210;6.838;2023-08-24T03:36:54;6.60;;;3.22;;
27491;SDS011;14927;51.210;6.838;2023-08-24T03:39:39;9.75;;;3.25;;
27491;SDS011;14927;51.210;6.838;2023-08-24T03:42:24;7.45;;;3.65;;
27491;SDS011;14927;51.210;6.838;2023-08-24T03:45:09;6.45;;;3.55;;
27491;SDS011;14927;51.210;6.838;2023-08-24T03:47:54;7.85;;;3.50;;
27491;SDS011;14927;51.210;6.838;2023-08-24T03:50:39;6.70;;;3.67;;
27491;SDS011;14927;51.210;6.838;2023-08-24T03:53:24;4.63;;;3.00;;
27491;SDS011;14927;51.210;6.838;2023-08-24T03:56:09;7.93;;;3.55;;
27491;SDS011;14927;51.210;6.838;2023-08-24T03:58:53;5.85;;;3.13;;
27491;SDS011;14927;51.210;6.838;2023-08-24T04:01:38;4.82;;;3.42;;
27491;SDS011;14927;51.210;6.838;2023-08-24T04:04:23;7.10;;;3.42;;
27491;SDS011;14927;51.210;6.838;2023-08-24T04:07:07;7.80;;;3.83;;
27491;SDS011;14927;51.210;6.838;2023-08-24T04:09:52;5.50;;;3.55;;
27491;SDS011;14927;51.210;6.838;2023-08-24T04:12:37;7.43;;;3.70;;
27491;SDS011;14927;51.210;6.838;2023-08-24T04:15:21;6.35;;;3.90;;
27491;SDS011;14927;51.210;6.838;2023-08-24T04:18:06;5.10;;;3.17;;
27491;SDS011;14927;51.210;6.838;2023-08-24T04:20:51;5.35;;;3.50;;
27491;SDS011;14927;51.210;6.838;2023-08-24T04:23:37;6.82;;;3.63;;
27491;SDS011;14927;51.210;6.838;2023-08-24T04:26:21;6.28;;;3.60;;
27491;SDS011;14927;51.210;6.838;2023-08-24T04:29:07;7.05;;;3.90;;
27491;SDS011;14927;51.210;6.838;2023-08-24T04:31:51;6.30;;;3.78;;
27491;SDS011;14927;51.210;6.838;2023-08-24T04:34:36;6.68;;;3.25;;
27491;SDS011;14927;51.210;6.838;2023-08-24T04:37:20;5.55;;;3.50;;
27491;SDS011;14927;51.210;6.838;2023-08-24T04:40:05;8.00;;;3.65;;
27491;SDS011;14927;51.210;6.838;2023-08-24T04:42:54;5.53;;;3.60;;
27491;SDS011;14927;51.210;6.838;2023-08-24T04:45:40;4.68;;;3.03;;
27491;SDS011;14927;51.210;6.838;2023-08-24T04:48:25;7.00;;;3.67;;
27491;SDS011;14927;51.210;6.838;2023-08-24T04:51:10;4.70;;;3.30;;
27491;SDS011;14927;51.210;6.838;2023-08-24T04:53:54;11.93;;;3.63;;
27491;SDS011;14927;51.210;6.838;2023-08-24T04:56:39;6.65;;;3.70;;
27491;SDS011;14927;51.210;6.838;2023-08-24T04:59:24;6.55;;;3.45;;
27491;SDS011;14927;51.210;6.838;2023-08-24T05:02:08;5.30;;;3.50;;
27491;SDS011;14927;51.210;6.838;2023-08-24T05:04:53;6.40;;;4.25;;
27491;SDS011;14927;51.210;6.838;2023-08-24T05:07:38;12.13;;;5.15;;
27491;SDS011;14927;51.210;6.838;2023-08-24T05:10:22;8.05;;;4.82;;
27491;SDS011;14927;51.210;6.838;2023-08-24T05:13:08;6.47;;;4.22;;
27491;SDS011;14927;51.210;6.838;2023-08-24T05:15:52;7.60;;;4.18;;
27491;SDS011;14927;51.210;6.838;2023-08-24T05:18:37;6.53;;;3.95;;
27491;SDS011;14927;51.210;6.838;2023-08-24T05:21:22;7.30;;;3.90;;
27491;SDS011;14927;51.210;6.838;2023-08-24T05:24:06;8.75;;;4.22;;
27491;SDS011;14927;51.210;6.838;2023-08-24T05:26:51;8.60;;;3.88;;
27491;SDS011;14927;51.210;6.838;2023-08-24T05:29:36;9.27;;;4.55;;
27491;SDS011;14927;51.210;6.838;2023-08-24T05:32:20;8.15;;;3.88;;
27491;SDS011;14927;51.210;6.838;2023-08-24T05:35:06;7.43;;;4.13;;
27491;SDS011;14927;51.210;6.838;2023-08-24T05:37:52;7.60;;;4.60;;
27491;SDS011;14927;51.210;6.838;2023-08-24T05:40:37;7.97;;;4.13;;
27491;SDS011;14927;51.210;6.838;2023-08-24T05:43:26;7.40;;;4.22;;
27491;SDS011;14927;51.210;6.838;2023-08-24T05:46:13;10.93;;;4.90;;
27491;SDS011;14927;51.210;6.838;2023-08-24T05:48:58;6.97;;;4.03;;
27491;SDS011;14927;51.210;6.838;2023-08-24T05:51:43;9.00;;;4.22;;
27491;SDS011;14927;51.210;6.838;2023-08-24T05:54:28;9.05;;;4.05;;
27491;SDS011;14927;51.210;6.838;2023-08-24T05:57:12;9.00;;;3.80;;
27491;SDS011;14927;51.210;6.838;2023-08-24T05:59:57;9.68;;;4.30;;
27491;SDS011;14927;51.210;6.838;2023-08-24T06:02:42;7.13;;;4.05;;
27491;SDS011;14927;51.210;6.838;2023-08-24T06:05:26;6.35;;;4.13;;
27491;SDS011;14927;51.210;6.838;2023-08-24T06:08:11;6.28;;;4.05;;
27491;SDS011;14927;51.210;6.838;2023-08-24T06:10:56;6.95;;;3.35;;
27491;SDS011;14927;51.210;6.838;2023-08-24T06:13:42;7.50;;;3.90;;
27491;SDS011;14927;51.210;6.838;2023-08-24T06:16:30;7.32;;;3.88;;
27491;SDS011;14927;51.210;6.838;2023-08-24T06:19:14;7.07;;;3.90;;
27491;SDS011;14927;51.210;6.838;2023-08-24T06:21:59;12.52;;;4.60;;
27491;SDS011;14927;51.210;6.838;2023-08-24T06:24:43;6.78;;;3.40;;
27491;SDS011;14927;51.210;6.838;2023-08-24T06:27:28;4.60;;;3.58;;
27491;SDS011;14927;51.210;6.838;2023-08-24T06:30:13;10.25;;;3.90;;
27491;SDS011;14927;51.210;6.838;2023-08-24T06:32:58;9.70;;;4.00;;
27491;SDS011;14927;51.210;6.838;2023-08-24T06:35:43;6.82;;;3.70;;
27491;SDS011;14927;51.210;6.838;2023-08-24T06:38:27;9.27;;;4.03;;
27491;SDS011;14927;51.210;6.838;2023-08-24T06:41:13;6.53;;;3.70;;
27491;SDS011;14927;51.210;6.838;2023-08-24T06:43:57;7.43;;;4.18;;
27491;SDS011;14927;51.210;6.838;2023-08-24T06:46:42;5.90;;;4.07;;
27491;SDS011;14927;51.210;6.838;2023-08-24T06:49:27;9.18;;;4.50;;
27491;SDS011;14927;51.210;6.838;2023-08-24T06:52:12;6.53;;;4.15;;
27491;SDS011;14927;51.210;6.838;2023-08-24T06:54:56;12.18;;;4.38;;
27491;SDS011;14927;51.210;6.838;2023-08-24T06:57:47;5.88;;;4.40;;
27491;SDS011;14927;51.210;6.838;2023-08-24T07:00:34;9.52;;;4.40;;
27491;SDS011;14927;51.210;6.838;2023-08-24T07:03:19;7.28;;;4.15;;
27491;SDS011;14927;51.210;6.838;2023-08-24T07:06:06;6.78;;;4.35;;
27491;SDS011;14927;51.210;6.838;2023-08-24T07:08:51;6.82;;;4.45;;
27491;SDS011;14927;51.210;6.838;2023-08-24T07:11:35;6.88;;;3.95;;
27491;SDS011;14927;51.210;6.838;2023-08-24T07:14:20;9.10;;;3.92;;
27491;SDS011;14927;51.210;6.838;2023-08-24T07:17:06;6.75;;;3.50;;
27491;SDS011;14927;51.210;6.838;2023-08-24T07:19:50;8.93;;;3.55;;
27491;SDS011;14927;51.210;6.838;2023-08-24T07:22:35;7.28;;;3.70;;
27491;SDS011;14927;51.210;6.838;2023-08-24T07:25:20;6.32;;;3.42;;
27491;SDS011;14927;51.210;6.838;2023-08-24T07:28:05;7.03;;;3.58;;
27491;SDS011;14927;51.210;6.838;2023-08-24T07:30:50;5.13;;;2.90;;
27491;SDS011;14927;51.210;6.838;2023-08-24T07:33:40;7.90;;;3.65;;
27491;SDS011;14927;51.210;6.838;2023-08-24T07:36:29;4.65;;;2.92;;
27491;SDS011;14927;51.210;6.838;2023-08-24T07:39:14;3.95;;;2.70;;
27491;SDS011;14927;51.210;6.838;2023-08-24T07:41:59;6.85;;;2.53;;
27491;SDS011;14927;51.210;6.838;2023-08-24T07:44:44;5.00;;;2.63;;
27491;SDS011;14927;51.210;6.838;2023-08-24T07:47:29;5.95;;;2.67;;
27491;SDS011;14927;51.210;6.838;2023-08-24T07:50:14;6.75;;;2.30;;
27491;SDS011;14927;51.210;6.838;2023-08-24T07:52:59;4.95;;;2.75;;
27491;SDS011;14927;51.210;6.838;2023-08-24T07:55:44;4.57;;;2.67;;
27491;SDS011;14927;51.210;6.838;2023-08-24T07:58:29;3.88;;;2.60;;
27491;SDS011;14927;51.210;6.838;2023-08-24T08:01:16;3.78;;;2.63;;
27491;SDS011;14927;51.210;6.838;2023-08-24T08:04:01;4.53;;;2.65;;
27491;SDS011;14927;51.210;6.838;2023-08-24T08:06:45;6.53;;;2.45;;
27491;SDS011;14927;51.210;6.838;2023-08-24T08:09:30;3.03;;;2.35;;
27491;SDS011;14927;51.210;6.838;2023-08-24T08:12:15;4.55;;;2.25;;
27491;SDS011;14927;51.210;6.838;2023-08-24T08:15:00;7.75;;;2.42;;
27491;SDS011;14927;51.210;6.838;2023-08-24T08:17:45;5.15;;;2.53;;
27491;SDS011;14927;51.210;6.838;2023-08-24T08:20:30;2.55;;;2.33;;
27491;SDS011;14927;51.210;6.838;2023-08-24T08:23:15;4.47;;;2.47;;
27491;SDS011;14927;51.210;6.838;2023-08-24T08:26:00;3.72;;;2.10;;
27491;SDS011;14927;51.210;6.838;2023-08-24T08:28:44;5.53;;;2.28;;
27491;SDS011;14927;51.210;6.838;2023-08-24T08:31:29;5.47;;;2.70;;
27491;SDS011;14927;51.210;6.838;2023-08-24T08:34:14;4.25;;;2.30;;
27491;SDS011;14927;51.210;6.838;2023-08-24T08:37:00;2.00;;;1.80;;
27491;SDS011;14927;51.210;6.838;2023-08-24T08:39:44;3.42;;;2.00;;
27491;SDS011;14927;51.210;6.838;2023-08-24T08:42:29;4.45;;;2.40;;
27491;SDS011;14927;51.210;6.838;2023-08-24T08:45:14;6.90;;;2.40;;
27491;SDS011;14927;51.210;6.838;2023-08-24T08:48:00;7.25;;;2.30;;
27491;SDS011;14927;51.210;6.838;2023-08-24T08:50:48;5.72;;;2.10;;
27491;SDS011;14927;51.210;6.838;2023-08-24T08:53:34;4.30;;;2.20;;
27491;SDS011;14927;51.210;6.838;2023-08-24T08:56:18;2.90;;;1.85;;
27491;SDS011;14927;51.210;6.838;2023-08-24T08:59:03;4.00;;;2.03;;
27491;SDS011;14927;51.210;6.838;2023-08-24T09:01:52;2.72;;;1.90;;
27491;SDS011;14927;51.210;6.838;2023-08-24T09:04:36;2.88;;;1.90;;
27491;SDS011;14927;51.210;6.838;2023-08-24T09:07:22;6.47;;;2.28;;
27491;SDS011;14927;51.210;6.838;2023-08-24T09:10:07;6.50;;;1.92;;
27491;SDS011;14927;51.210;6.838;2023-08-24T09:12:52;3.25;;;2.35;;
27491;SDS011;14927;51.210;6.838;2023-08-24T09:15:37;4.22;;;1.98;;
27491;SDS011;14927;51.210;6.838;2023-08-24T09:18:21;3.80;;;2.00;;
27491;SDS011;14927;51.210;6.838;2023-08-24T09:21:18;4.30;;;1.67;;
27491;SDS011;14927;51.210;6.838;2023-08-24T09:24:03;5.30;;;1.98;;
27491;SDS011;14927;51.210;6.838;2023-08-24T09:26:48;4.15;;;2.08;;
27491;SDS011;14927;51.210;6.838;2023-08-24T09:29:36;4.00;;;1.92;;
27491;SDS011;14927;51.210;6.838;2023-08-24T09:32:22;5.07;;;1.92;;
27491;SDS011;14927;51.210;6.838;2023-08-24T09:35:13;2.65;;;1.90;;
27491;SDS011;14927;51.210;6.838;2023-08-24T09:37:59;6.10;;;1.95;;
27491;SDS011;14927;51.210;6.838;2023-08-24T09:40:45;3.95;;;2.22;;
27491;SDS011;14927;51.210;6.838;2023-08-24T09:43:34;2.92;;;1.95;;
27491;SDS011;14927;51.210;6.838;2023-08-24T09:46:19;3.00;;;1.80;;
27491;SDS011;14927;51.210;6.838;2023-08-24T09:49:08;3.75;;;1.75;;
27491;SDS011;14927;51.210;6.838;2023-08-24T09:51:55;4.68;;;2.28;;
27491;SDS011;14927;51.210;6.838;2023-08-24T09:54:43;4.60;;;2.00;;
27491;SDS011;14927;51.210;6.838;2023-08-24T09:57:29;2.78;;;1.80;;
27491;SDS011;14927;51.210;6.838;2023-08-24T10:00:23;4.45;;;2.28;;
27491;SDS011;14927;51.210;6.838;2023-08-24T10:03:09;5.22;;;1.98;;
27491;SDS011;14927;51.210;6.838;2023-08-24T10:05:59;4.80;;;1.85;;
27491;SDS011;14927;51.210;6.838;2023-08-24T10:08:52;2.92;;;1.90;;
27491;SDS011;14927;51.210;6.838;2023-08-24T10:11:45;4.18;;;2.15;;
27491;SDS011;14927;51.210;6.838;2023-08-24T10:14:41;4.07;;;2.10;;
27491;SDS011;14927;51.210;6.838;2023-08-24T10:17:43;2.70;;;1.88;;
27491;SDS011;14927;51.210;6.838;2023-08-24T10:20:29;4.55;;;2.00;;
27491;SDS011;14927;51.210;6.838;2023-08-24T10:23:14;2.47;;;1.85;;
27491;SDS011;14927;51.210;6.838;2023-08-24T10:26:02;4.90;;;2.20;;
27491;SDS011;14927;51.210;6.838;2023-08-24T10:28:47;3.75;;;2.08;;
27491;SDS011;14927;51.210;6.838;2023-08-24T10:31:37;6.03;;;2.10;;
27491;SDS011;14927;51.210;6.838;2023-08-24T10:34:24;4.97;;;1.90;;
27491;SDS011;14927;51.210;6.838;2023-08-24T10:37:09;3.88;;;2.22;;
27491;SDS011;14927;51.210;6.838;2023-08-24T10:39:55;6.88;;;2.10;;
27491;SDS011;14927;51.210;6.838;2023-08-24T10:42:46;3.55;;;1.73;;
27491;SDS011;14927;51.210;6.838;2023-08-24T10:51:25;7.95;;;2.88;;
27491;SDS011;14927;51.210;6.838;2023-08-24T10:54:10;3.08;;;2.03;;
27491;SDS011;14927;51.210;6.838;2023-08-24T10:56:55;4.10;;;1.90;;
27491;SDS011;14927;51.210;6.838;2023-08-24T10:59:43;2.53;;;1.88;;
27491;SDS011;14927;51.210;6.838;2023-08-24T11:02:28;2.20;;;1.75;;
27491;SDS011;14927;51.210;6.838;2023-08-24T11:05:17;4.85;;;1.80;;
27491;SDS011;14927;51.210;6.838;2023-08-24T11:08:05;3.73;;;2.10;;
27491;SDS011;14927;51.210;6.838;2023-08-24T11:10:50;5.68;;;1.80;;
27491;SDS011;14927;51.210;6.838;2023-08-24T11:13:37;4.55;;;2.30;;
27491;SDS011;14927;51.210;6.838;2023-08-24T11:17:17;4.93;;;2.70;;
27491;SDS011;14927;51.210;6.838;2023-08-24T11:20:03;3.03;;;1.92;;
27491;SDS011;14927;51.210;6.838;2023-08-24T11:22:49;5.50;;;2.47;;
27491;SDS011;14927;51.210;6.838;2023-08-24T11:25:39;4.57;;;2.05;;
27491;SDS011;14927;51.210;6.838;2023-08-24T11:28:25;3.45;;;2.25;;
27491;SDS011;14927;51.210;6.838;2023-08-24T11:31:11;2.90;;;1.95;;
27491;SDS011;14927;51.210;6.838;2023-08-24T11:33:56;5.47;;;2.10;;
27491;SDS011;14927;51.210;6.838;2023-08-24T11:36:41;5.82;;;2.13;;
27491;SDS011;14927;51.210;6.838;2023-08-24T11:39:31;6.63;;;2.40;;
27491;SDS011;14927;51.210;6.838;2023-08-24T11:42:16;4.25;;;2.47;;
27491;SDS011;14927;51.210;6.838;2023-08-24T11:45:02;10.75;;;2.40;;
27491;SDS011;14927;51.210;6.838;2023-08-24T11:47:57;5.43;;;2.50;;
27491;SDS011;14927;51.210;6.838;2023-08-24T11:50:43;5.68;;;2.22;;
27491;SDS011;14927;51.210;6.838;2023-08-24T11:53:28;4.22;;;1.75;;
27491;SDS011;14927;51.210;6.838;2023-08-24T11:56:15;7.15;;;2.10;;
27491;SDS011;14927;51.210;6.838;2023-08-24T11:59:00;5.13;;;2.10;;
27491;SDS011;14927;51.210;6.838;2023-08-24T12:01:45;4.70;;;2.05;;
27491;SDS011;14927;51.210;6.838;2023-08-24T12:04:37;4.78;;;1.80;;
27491;SDS011;14927;51.210;6.838;2023-08-24T12:07:25;4.20;;;2.15;;
27491;SDS011;14927;51.210;6.838;2023-08-24T12:10:12;4.78;;;1.90;;
27491;SDS011;14927;51.210;6.838;2023-08-24T12:13:03;6.82;;;1.98;;
27491;SDS011;14927;51.210;6.838;2023-08-24T12:18:28;8.95;;;2.40;;
27491;SDS011;14927;51.210;6.838;2023-08-24T12:21:15;3.58;;;2.22;;
27491;SDS011;14927;51.210;6.838;2023-08-24T12:24:00;7.55;;;1.95;;
27491;SDS011;14927;51.210;6.838;2023-08-24T12:26:56;8.57;;;2.70;;
27491;SDS011;14927;51.210;6.838;2023-08-24T12:29:46;6.05;;;2.45;;
27491;SDS011;14927;51.210;6.838;2023-08-24T12:32:44;5.65;;;2.08;;
27491;SDS011;14927;51.210;6.838;2023-08-24T12:35:31;4.88;;;2.30;;
27491;SDS011;14927;51.210;6.838;2023-08-24T12:38:15;4.18;;;2.10;;
27491;SDS011;14927;51.210;6.838;2023-08-24T12:41:00;2.40;;;1.50;;
27491;SDS011;14927;51.210;6.838;2023-08-24T12:43:45;5.85;;;2.60;;
27491;SDS011;14927;51.210;6.838;2023-08-24T12:46:30;6.18;;;2.50;;
27491;SDS011;14927;51.210;6.838;2023-08-24T12:49:16;5.78;;;2.75;;
27491;SDS011;14927;51.210;6.838;2023-08-24T12:52:00;3.85;;;2.22;;
27491;SDS011;14927;51.210;6.838;2023-08-24T12:54:45;3.67;;;2.22;;
27491;SDS011;14927;51.210;6.838;2023-08-24T12:57:30;10.60;;;2.35;;
27491;SDS011;14927;51.210;6.838;2023-08-24T13:00:15;5.65;;;1.92;;
27491;SDS011;14927;51.210;6.838;2023-08-24T13:03:00;7.72;;;2.28;;
27491;SDS011;14927;51.210;6.838;2023-08-24T13:05:44;4.93;;;2.30;;
27491;SDS011;14927;51.210;6.838;2023-08-24T13:08:29;8.38;;;2.70;;
27491;SDS011;14927;51.210;6.838;2023-08-24T13:11:14;6.22;;;2.78;;
27491;SDS011;14927;51.210;6.838;2023-08-24T13:13:58;5.47;;;1.98;;
27491;SDS011;14927;51.210;6.838;2023-08-24T13:16:43;5.32;;;1.98;;
27491;SDS011;14927;51.210;6.838;2023-08-24T13:19:29;4.22;;;2.22;;
27491;SDS011;14927;51.210;6.838;2023-08-24T13:22:13;5.60;;;2.25;;
27491;SDS011;14927;51.210;6.838;2023-08-24T13:24:58;6.95;;;2.60;;
27491;SDS011;14927;51.210;6.838;2023-08-24T13:27:44;9.30;;;2.40;;
27491;SDS011;14927;51.210;6.838;2023-08-24T13:30:28;5.93;;;2.83;;
27491;SDS011;14927;51.210;6.838;2023-08-24T13:33:13;7.03;;;2.67;;
27491;SDS011;14927;51.210;6.838;2023-08-24T13:35:58;4.70;;;2.30;;
27491;SDS011;14927;51.210;6.838;2023-08-24T13:38:45;7.50;;;2.58;;
27491;SDS011;14927;51.210;6.838;2023-08-24T13:41:31;7.18;;;2.60;;
27491;SDS011;14927;51.210;6.838;2023-08-24T13:44:15;4.38;;;2.25;;
27491;SDS011;14927;51.210;6.838;2023-08-24T13:47:00;5.60;;;2.50;;
27491;SDS011;14927;51.210;6.838;2023-08-24T13:49:45;5.93;;;2.95;;
27491;SDS011;14927;51.210;6.838;2023-08-24T13:52:30;6.45;;;3.00;;
27491;SDS011;14927;51.210;6.838;2023-08-24T13:55:14;7.63;;;2.53;;
27491;SDS011;14927;51.210;6.838;2023-08-24T13:57:59;8.63;;;2.90;;
27491;SDS011;14927;51.210;6.838;2023-08-24T14:00:44;6.50;;;3.50;;
27491;SDS011;14927;51.210;6.838;2023-08-24T14:03:29;5.47;;;2.67;;
27491;SDS011;14927;51.210;6.838;2023-08-24T14:06:13;11.23;;;3.60;;
27491;SDS011;14927;51.210;6.838;2023-08-24T14:08:58;7.22;;;2.78;;
27491;SDS011;14927;51.210;6.838;2023-08-24T14:11:43;4.75;;;2.45;;
27491;SDS011;14927;51.210;6.838;2023-08-24T14:14:27;7.82;;;2.80;;
27491;SDS011;14927;51.210;6.838;2023-08-24T14:17:12;9.10;;;3.38;;
27491;SDS011;14927;51.210;6.838;2023-08-24T14:19:57;3.63;;;2.30;;
27491;SDS011;14927;51.210;6.838;2023-08-24T14:22:41;6.15;;;2.88;;
27491;SDS011;14927;51.210;6.838;2023-08-24T14:25:26;12.07;;;3.38;;
27491;SDS011;14927;51.210;6.838;2023-08-24T14:28:11;4.32;;;2.78;;
27491;SDS011;14927;51.210;6.838;2023-08-24T14:30:55;7.28;;;2.58;;
27491;SDS011;14927;51.210;6.838;2023-08-24T14:33:40;8.95;;;3.47;;
27491;SDS011;14927;51.210;6.838;2023-08-24T14:36:25;7.50;;;3.38;;
27491;SDS011;14927;51.210;6.838;2023-08-24T14:39:09;20.63;;;3.72;;
27491;SDS011;14927;51.210;6.838;2023-08-24T14:41:54;6.57;;;2.53;;
27491;SDS011;14927;51.210;6.838;2023-08-24T14:44:38;8.50;;;2.67;;
27491;SDS011;14927;51.210;6.838;2023-08-24T14:47:23;6.57;;;2.90;;
27491;SDS011;14927;51.210;6.838;2023-08-24T14:50:08;5.90;;;2.90;;
27491;SDS011;14927;51.210;6.838;2023-08-24T14:52:54;8.40;;;2.50;;
27491;SDS011;14927;51.210;6.838;2023-08-24T14:55:39;7.13;;;2.47;;
27491;SDS011;14927;51.210;6.838;2023-08-24T14:58:24;6.57;;;2.60;;
27491;SDS011;14927;51.210;6.838;2023-08-24T15:01:10;6.47;;;3.20;;
27491;SDS011;14927;51.210;6.838;2023-08-24T15:03:55;4.97;;;2.40;;
27491;SDS011;14927;51.210;6.838;2023-08-24T15:06:40;3.35;;;2.05;;
27491;SDS011;14927;51.210;6.838;2023-08-24T15:09:24;7.00;;;2.40;;
27491;SDS011;14927;51.210;6.838;2023-08-24T15:12:09;6.32;;;2.28;;
27491;SDS011;14927;51.210;6.838;2023-08-24T15:15:00;10.20;;;2.33;;
27491;SDS011;14927;51.210;6.838;2023-08-24T15:17:46;5.38;;;2.40;;
27491;SDS011;14927;51.210;6.838;2023-08-24T15:20:31;7.10;;;2.80;;
27491;SDS011;14927;51.210;6.838;2023-08-24T15:23:24;7.72;;;2.90;;
27491;SDS011;14927;51.210;6.838;2023-08-24T15:26:11;6.38;;;2.50;;
27491;SDS011;14927;51.210;6.838;2023-08-24T15:31:57;5.55;;;2.70;;
27491;SDS011;14927;51.210;6.838;2023-08-24T15:34:41;5.38;;;2.42;;
27491;SDS011;14927;51.210;6.838;2023-08-24T15:37:26;6.43;;;2.13;;
27491;SDS011;14927;51.210;6.838;2023-08-24T15:40:12;5.05;;;2.28;;
27491;SDS011;14927;51.210;6.838;2023-08-24T15:42:57;4.28;;;2.30;;
27491;SDS011;14927;51.210;6.838;2023-08-24T15:45:41;4.93;;;2.63;;
27491;SDS011;14927;51.210;6.838;2023-08-24T15:48:26;8.40;;;2.15;;
27491;SDS011;14927;51.210;6.838;2023-08-24T15:51:11;8.10;;;2.63;;
27491;SDS011;14927;51.210;6.838;2023-08-24T15:53:56;7.55;;;2.45;;
27491;SDS011;14927;51.210;6.838;2023-08-24T15:56:43;9.18;;;2.47;;
27491;SDS011;14927;51.210;6.838;2023-08-24T15:59:40;4.18;;;2.25;;
27491;SDS011;14927;51.210;6.838;2023-08-24T16:02:25;9.23;;;2.28;;
27491;SDS011;14927;51.210;6.838;2023-08-24T16:05:09;3.85;;;2.00;;
27491;SDS011;14927;51.210;6.838;2023-08-24T16:07:58;7.70;;;2.80;;
27491;SDS011;14927;51.210;6.838;2023-08-24T16:10:43;6.68;;;2.72;;
27491;SDS011;14927;51.210;6.838;2023-08-24T16:13:34;6.53;;;2.38;;
27491;SDS011;14927;51.210;6.838;2023-08-24T16:16:19;5.43;;;2.22;;
27491;SDS011;14927;51.210;6.838;2023-08-24T16:19:04;5.55;;;2.35;;
27491;SDS011;14927;51.210;6.838;2023-08-24T16:21:50;6.30;;;2.28;;
27491;SDS011;14927;51.210;6.838;2023-08-24T16:24:35;3.95;;;1.98;;
27491;SDS011;14927;51.210;6.838;2023-08-24T16:27:20;7.85;;;3.28;;
27491;SDS011;14927;51.210;6.838;2023-08-24T16:30:04;5.68;;;2.47;;
27491;SDS011;14927;51.210;6.838;2023-08-24T16:32:50;3.90;;;2.38;;
27491;SDS011;14927;51.210;6.838;2023-08-24T16:35:35;8.00;;;2.45;;
27491;SDS011;14927;51.210;6.838;2023-08-24T16:38:20;6.32;;;2.25;;
27491;SDS011;14927;51.210;6.838;2023-08-24T16:41:05;3.20;;;1.60;;
27491;SDS011;14927;51.210;6.838;2023-08-24T16:43:49;5.22;;;1.98;;
27491;SDS011;14927;51.210;6.838;2023-08-24T16:46:34;4.10;;;2.17;;
27491;SDS011;14927;51.210;6.838;2023-08-24T16:49:19;7.53;;;2.22;;
27491;SDS011;14927;51.210;6.838;2023-08-24T16:52:04;5.63;;;2.35;;
27491;SDS011;14927;51.210;6.838;2023-08-24T16:54:49;7.78;;;2.33;;
27491;SDS011;14927;51.210;6.838;2023-08-24T16:57:34;5.78;;;1.95;;
27491;SDS011;14927;51.210;6.838;2023-08-24T17:00:18;4.30;;;1.77;;